createdAt,value
2018-08-03T00:00:21.700Z,0
2018-08-03T00:01:21.780Z,0
2018-08-03T00:02:21.703Z,0
2018-08-03T00:03:21.780Z,0
2018-08-03T00:04:21.791Z,0
2018-08-03T00:05:21.787Z,0
2018-08-03T00:06:21.692Z,0
2018-08-03T00:07:21.783Z,0
2018-08-03T00:08:21.785Z,0
2018-08-03T00:09:21.714Z,0
2018-08-03T00:10:21.792Z,0
2018-08-03T00:11:21.721Z,0
2018-08-03T00:12:21.794Z,0
2018-08-03T00:13:21.725Z,0
2018-08-03T00:14:21.731Z,0
2018-08-03T00:15:21.731Z,0
2018-08-03T00:16:21.729Z,0
2018-08-03T00:17:21.797Z,0
2018-08-03T00:18:21.728Z,0
2018-08-03T00:19:21.797Z,0
2018-08-03T00:20:21.758Z,0
2018-08-03T00:21:21.793Z,0
2018-08-03T00:22:21.798Z,0
2018-08-03T00:23:21.791Z,0
2018-08-03T00:24:21.705Z,0
2018-08-03T00:25:21.730Z,0
2018-08-03T00:26:21.725Z,0
2018-08-03T00:27:21.742Z,0
2018-08-03T00:28:21.789Z,0
2018-08-03T00:29:21.724Z,0
2018-08-03T00:30:21.814Z,0
2018-08-03T00:31:21.808Z,0
2018-08-03T00:32:21.809Z,0
2018-08-03T00:33:21.743Z,0
2018-08-03T00:34:21.767Z,0
2018-08-03T00:35:21.740Z,0
2018-08-03T00:36:21.811Z,0
2018-08-03T00:37:21.692Z,0
2018-08-03T00:38:21.749Z,0
2018-08-03T00:39:21.747Z,0
2018-08-03T00:40:21.734Z,0
2018-08-03T00:41:21.808Z,0
2018-08-03T00:42:21.809Z,0
2018-08-03T00:43:21.963Z,0
2018-08-03T00:44:21.805Z,0
2018-08-03T00:45:21.811Z,0
2018-08-03T00:46:21.736Z,0
2018-08-03T00:47:21.811Z,0
2018-08-03T00:48:21.722Z,0
2018-08-03T00:49:21.892Z,0
2018-08-03T00:50:21.798Z,0
2018-08-03T00:51:21.786Z,0
2018-08-03T00:52:21.777Z,0
2018-08-03T00:53:21.851Z,0
2018-08-03T00:54:21.746Z,0
2018-08-03T00:55:21.858Z,0
2018-08-03T00:56:21.764Z,0
2018-08-03T00:57:21.823Z,0
2018-08-03T00:58:21.725Z,0
2018-08-03T00:59:21.844Z,0
2018-08-03T01:00:21.784Z,0
2018-08-03T01:01:21.824Z,0
2018-08-03T01:02:21.726Z,0
2018-08-03T01:03:21.809Z,0
2018-08-03T01:04:21.719Z,0
2018-08-03T01:05:21.812Z,0
2018-08-03T01:06:21.762Z,0
2018-08-03T01:07:21.695Z,0
2018-08-03T01:08:21.755Z,0
2018-08-03T01:09:21.727Z,0
2018-08-03T01:10:21.773Z,0
2018-08-03T01:11:21.644Z,0
2018-08-03T01:12:21.871Z,0
2018-08-03T01:13:21.807Z,0
2018-08-03T01:14:21.861Z,0
2018-08-03T01:15:21.742Z,0
2018-08-03T01:16:21.813Z,0
2018-08-03T01:17:21.850Z,0
2018-08-03T01:18:21.838Z,0
2018-08-03T01:19:21.837Z,0
2018-08-03T01:20:21.806Z,0
2018-08-03T01:21:21.858Z,0
2018-08-03T01:22:21.814Z,0
2018-08-03T01:23:21.812Z,0
2018-08-03T01:24:21.813Z,0
2018-08-03T01:25:21.784Z,0
2018-08-03T01:26:21.903Z,0
2018-08-03T01:27:21.847Z,0
2018-08-03T01:28:21.761Z,0
2018-08-03T01:29:21.865Z,0
2018-08-03T01:30:21.838Z,0
2018-08-03T01:31:21.842Z,0
2018-08-03T01:32:21.843Z,0
2018-08-03T01:33:21.770Z,0
2018-08-03T01:34:21.779Z,0
2018-08-03T01:35:21.844Z,0
2018-08-03T01:36:21.773Z,0
2018-08-03T01:37:21.845Z,0
2018-08-03T01:38:21.845Z,0
2018-08-03T01:39:21.797Z,0
2018-08-03T01:40:21.778Z,0
2018-08-03T01:41:21.794Z,0
2018-08-03T01:42:21.854Z,0
2018-08-03T01:43:21.775Z,0
2018-08-03T01:44:21.775Z,0
2018-08-03T01:45:21.845Z,0
2018-08-03T01:46:21.723Z,0
2018-08-03T01:47:21.816Z,0
2018-08-03T01:48:21.730Z,0
2018-08-03T01:49:21.776Z,0
2018-08-03T01:50:21.800Z,0
2018-08-03T01:51:21.836Z,0
2018-08-03T01:52:21.860Z,0
2018-08-03T01:53:21.799Z,0
2018-08-03T01:54:21.885Z,0
2018-08-03T01:55:21.896Z,0
2018-08-03T01:56:21.780Z,0
2018-08-03T01:57:21.805Z,0
2018-08-03T01:58:21.900Z,0
2018-08-03T01:59:21.829Z,0
2018-08-03T02:00:21.769Z,0
2018-08-03T02:01:21.807Z,0
2018-08-03T02:02:21.809Z,0
2018-08-03T02:03:21.790Z,0
2018-08-03T02:04:21.836Z,0
2018-08-03T02:05:21.809Z,0
2018-08-03T02:06:21.904Z,0
2018-08-03T02:07:21.911Z,0
2018-08-03T02:08:21.834Z,0
2018-08-03T02:09:21.836Z,0
2018-08-03T02:10:21.856Z,0
2018-08-03T02:11:21.836Z,0
2018-08-03T02:12:21.876Z,0
2018-08-03T02:13:21.855Z,0
2018-08-03T02:14:21.853Z,0
2018-08-03T02:15:21.876Z,0
2018-08-03T02:16:21.863Z,0
2018-08-03T02:17:21.807Z,0
2018-08-03T02:18:21.903Z,0
2018-08-03T02:19:21.796Z,0
2018-08-03T02:20:21.856Z,0
2018-08-03T02:21:21.827Z,0
2018-08-03T02:22:21.786Z,0
2018-08-03T02:23:21.902Z,0
2018-08-03T02:24:21.860Z,0
2018-08-03T02:25:21.821Z,0
2018-08-03T02:26:21.919Z,0
2018-08-03T02:27:21.792Z,0
2018-08-03T02:28:21.806Z,0
2018-08-03T02:29:21.852Z,0
2018-08-03T02:30:21.912Z,0
2018-08-03T02:31:21.812Z,0
2018-08-03T02:32:21.924Z,0
2018-08-03T02:33:21.911Z,0
2018-08-03T02:34:21.864Z,0
2018-08-03T02:35:21.833Z,0
2018-08-03T02:36:21.829Z,0
2018-08-03T02:37:21.814Z,0
2018-08-03T02:38:21.868Z,0
2018-08-03T02:39:21.893Z,0
2018-08-03T02:40:21.860Z,0
2018-08-03T02:41:21.879Z,0
2018-08-03T02:42:21.862Z,0
2018-08-03T02:43:21.818Z,0
2018-08-03T02:44:21.801Z,0
2018-08-03T02:45:21.917Z,0
2018-08-03T02:46:21.800Z,0
2018-08-03T02:47:21.901Z,0
2018-08-03T02:48:21.910Z,0
2018-08-03T02:49:21.905Z,0
2018-08-03T02:50:21.939Z,0
2018-08-03T02:51:21.819Z,0
2018-08-03T02:52:21.863Z,0
2018-08-03T02:53:21.942Z,0
2018-08-03T02:54:21.822Z,0
2018-08-03T02:55:21.826Z,0
2018-08-03T02:56:21.834Z,0
2018-08-03T02:57:21.874Z,0
2018-08-03T02:58:21.936Z,0
2018-08-03T02:59:21.888Z,0
2018-08-03T03:00:21.888Z,0
2018-08-03T03:01:21.802Z,0
2018-08-03T03:02:21.782Z,0
2018-08-03T03:03:21.900Z,0
2018-08-03T03:04:21.805Z,0
2018-08-03T03:05:21.889Z,0
2018-08-03T03:06:21.780Z,0
2018-08-03T03:07:21.817Z,0
2018-08-03T03:08:21.981Z,0
2018-08-03T03:09:21.877Z,0
2018-08-03T03:10:21.873Z,0
2018-08-03T03:11:21.909Z,0
2018-08-03T03:12:21.907Z,0
2018-08-03T03:13:21.818Z,0
2018-08-03T03:14:21.896Z,0
2018-08-03T03:15:21.875Z,0
2018-08-03T03:16:21.879Z,0
2018-08-03T03:17:21.911Z,0
2018-08-03T03:18:21.798Z,0
2018-08-03T03:19:21.892Z,0
2018-08-03T03:20:21.840Z,0
2018-08-03T03:21:21.827Z,0
2018-08-03T03:22:21.937Z,0
2018-08-03T03:23:21.851Z,0
2018-08-03T03:24:21.871Z,0
2018-08-03T03:25:21.873Z,0
2018-08-03T03:26:21.915Z,0
2018-08-03T03:27:21.918Z,0
2018-08-03T03:28:21.874Z,0
2018-08-03T03:29:21.855Z,0
2018-08-03T03:30:21.933Z,0
2018-08-03T03:31:21.875Z,0
2018-08-03T03:32:21.934Z,0
2018-08-03T03:33:21.888Z,0
2018-08-03T03:34:21.987Z,0
2018-08-03T03:35:21.870Z,0
2018-08-03T03:36:21.949Z,0
2018-08-03T03:37:21.872Z,0
2018-08-03T03:38:21.942Z,0
2018-08-03T03:39:21.939Z,0
2018-08-03T03:40:21.877Z,0
2018-08-03T03:41:21.871Z,0
2018-08-03T03:42:21.889Z,0
2018-08-03T03:43:21.884Z,0
2018-08-03T03:44:21.938Z,0
2018-08-03T03:45:21.942Z,0
2018-08-03T03:46:21.882Z,0
2018-08-03T03:47:21.879Z,0
2018-08-03T03:48:21.943Z,0
2018-08-03T03:49:21.879Z,0
2018-08-03T03:50:21.900Z,0
2018-08-03T03:51:21.925Z,0
2018-08-03T03:52:21.847Z,0
2018-08-03T03:53:21.925Z,0
2018-08-03T03:54:21.931Z,0
2018-08-03T03:55:21.837Z,0
2018-08-03T03:56:21.890Z,0
2018-08-03T03:57:21.880Z,0
2018-08-03T03:58:21.946Z,0
2018-08-03T03:59:21.999Z,0
2018-08-03T04:00:21.891Z,0
2018-08-03T04:01:21.939Z,0
2018-08-03T04:02:21.952Z,0
2018-08-03T04:03:21.891Z,0
2018-08-03T04:04:21.876Z,0
2018-08-03T04:05:21.979Z,0
2018-08-03T04:06:21.928Z,0
2018-08-03T04:07:21.862Z,0
2018-08-03T04:08:21.959Z,0
2018-08-03T04:09:21.925Z,0
2018-08-03T04:10:21.898Z,0
2018-08-03T04:11:21.959Z,0
2018-08-03T04:12:21.913Z,0
2018-08-03T04:13:21.903Z,0
2018-08-03T04:14:21.894Z,0
2018-08-03T04:15:21.961Z,0
2018-08-03T04:16:21.969Z,0
2018-08-03T04:17:21.892Z,0
2018-08-03T04:18:21.975Z,0
2018-08-03T04:19:21.966Z,0
2018-08-03T04:20:21.990Z,0
2018-08-03T04:21:21.993Z,0
2018-08-03T04:22:21.890Z,0
2018-08-03T04:23:21.928Z,0
2018-08-03T04:24:21.937Z,0
2018-08-03T04:25:21.972Z,0
2018-08-03T04:26:22.001Z,0
2018-08-03T04:27:21.984Z,0
2018-08-03T04:28:21.991Z,0
2018-08-03T04:29:21.913Z,0
2018-08-03T04:30:21.923Z,0
2018-08-03T04:31:21.908Z,0
2018-08-03T04:32:21.873Z,0
2018-08-03T04:33:21.893Z,0
2018-08-03T04:34:21.972Z,14
2018-08-03T04:35:21.961Z,15
2018-08-03T04:36:21.912Z,16
2018-08-03T04:37:21.875Z,16
2018-08-03T04:38:21.898Z,16
2018-08-03T04:39:21.973Z,17
2018-08-03T04:40:21.942Z,18
2018-08-03T04:41:21.998Z,19
2018-08-03T04:42:22.070Z,19
2018-08-03T04:43:21.901Z,20
2018-08-03T04:44:21.850Z,20
2018-08-03T04:45:21.936Z,21
2018-08-03T04:46:21.968Z,21
2018-08-03T04:47:21.979Z,22
2018-08-03T04:48:21.976Z,22
2018-08-03T04:49:21.915Z,22
2018-08-03T04:50:21.907Z,20
2018-08-03T04:51:21.888Z,23
2018-08-03T04:52:21.893Z,23
2018-08-03T04:53:21.969Z,24
2018-08-03T04:54:22.000Z,22
2018-08-03T04:55:21.929Z,21
2018-08-03T04:56:21.989Z,25
2018-08-03T04:57:21.978Z,26
2018-08-03T04:58:21.984Z,26
2018-08-03T04:59:21.942Z,27
2018-08-03T05:00:21.960Z,26
2018-08-03T05:01:22.010Z,26
2018-08-03T05:02:21.900Z,28
2018-08-03T05:03:21.973Z,28
2018-08-03T05:04:22.120Z,29
2018-08-03T05:05:21.902Z,30
2018-08-03T05:06:22.000Z,29
2018-08-03T05:07:22.025Z,29
2018-08-03T05:08:21.916Z,30
2018-08-03T05:09:22.017Z,30
2018-08-03T05:10:22.029Z,33
2018-08-03T05:11:22.039Z,33
2018-08-03T05:12:21.996Z,34
2018-08-03T05:13:21.942Z,34
2018-08-03T05:14:21.994Z,33
2018-08-03T05:15:21.978Z,34
2018-08-03T05:16:21.942Z,35
2018-08-03T05:17:21.942Z,36
2018-08-03T05:18:21.921Z,36
2018-08-03T05:19:22.041Z,36
2018-08-03T05:20:22.000Z,35
2018-08-03T05:21:22.002Z,36
2018-08-03T05:22:21.985Z,37
2018-08-03T05:23:21.905Z,38
2018-08-03T05:24:21.985Z,39
2018-08-03T05:25:21.879Z,39
2018-08-03T05:26:21.904Z,38
2018-08-03T05:27:22.005Z,38
2018-08-03T05:28:21.972Z,40
2018-08-03T05:29:21.994Z,40
2018-08-03T05:30:21.986Z,40
2018-08-03T05:31:22.052Z,41
2018-08-03T05:32:21.948Z,41
2018-08-03T05:33:22.014Z,40
2018-08-03T05:34:22.042Z,42
2018-08-03T05:35:21.987Z,42
2018-08-03T05:36:22.009Z,43
2018-08-03T05:37:21.921Z,43
2018-08-03T05:38:21.999Z,42
2018-08-03T05:39:21.925Z,42
2018-08-03T05:40:21.949Z,44
2018-08-03T05:41:22.024Z,44
2018-08-03T05:42:21.960Z,44
2018-08-03T05:43:21.952Z,45
2018-08-03T05:44:22.025Z,45
2018-08-03T05:45:22.006Z,45
2018-08-03T05:46:21.962Z,46
2018-08-03T05:47:22.026Z,47
2018-08-03T05:48:22.035Z,47
2018-08-03T05:49:22.047Z,47
2018-08-03T05:50:22.054Z,47
2018-08-03T05:51:21.950Z,48
2018-08-03T05:52:22.079Z,49
2018-08-03T05:53:21.991Z,49
2018-08-03T05:54:21.950Z,49
2018-08-03T05:55:22.031Z,46
2018-08-03T05:56:22.003Z,46
2018-08-03T05:57:22.001Z,50
2018-08-03T05:58:22.015Z,51
2018-08-03T05:59:22.005Z,52
2018-08-03T06:00:21.962Z,51
2018-08-03T06:01:21.963Z,53
2018-08-03T06:02:21.959Z,52
2018-08-03T06:03:21.960Z,53
2018-08-03T06:04:21.964Z,54
2018-08-03T06:05:21.999Z,53
2018-08-03T06:06:21.946Z,54
2018-08-03T06:07:21.948Z,55
2018-08-03T06:08:22.047Z,54
2018-08-03T06:09:22.014Z,54
2018-08-03T06:10:21.970Z,56
2018-08-03T06:11:21.974Z,56
2018-08-03T06:12:21.934Z,56
2018-08-03T06:13:22.051Z,57
2018-08-03T06:14:21.976Z,57
2018-08-03T06:15:21.977Z,57
2018-08-03T06:16:22.052Z,58
2018-08-03T06:17:22.054Z,60
2018-08-03T06:18:22.056Z,58
2018-08-03T06:19:21.981Z,59
2018-08-03T06:20:21.981Z,60
2018-08-03T06:21:22.057Z,60
2018-08-03T06:22:22.125Z,62
2018-08-03T06:23:22.146Z,63
2018-08-03T06:24:22.014Z,62
2018-08-03T06:25:21.986Z,63
2018-08-03T06:26:21.987Z,91
2018-08-03T06:27:22.055Z,104
2018-08-03T06:28:22.127Z,118
2018-08-03T06:29:22.062Z,130
2018-08-03T06:30:22.060Z,135
2018-08-03T06:31:22.011Z,138
2018-08-03T06:32:21.931Z,139
2018-08-03T06:33:21.991Z,133
2018-08-03T06:34:21.933Z,141
2018-08-03T06:35:21.962Z,143
2018-08-03T06:36:21.947Z,173
2018-08-03T06:37:22.049Z,175
2018-08-03T06:38:22.008Z,176
2018-08-03T06:39:21.999Z,171
2018-08-03T06:40:22.058Z,179
2018-08-03T06:41:21.971Z,180
2018-08-03T06:42:22.061Z,182
2018-08-03T06:43:22.084Z,214
2018-08-03T06:44:22.064Z,231
2018-08-03T06:45:21.988Z,239
2018-08-03T06:46:22.086Z,241
2018-08-03T06:47:22.102Z,252
2018-08-03T06:48:22.122Z,254
2018-08-03T06:49:22.067Z,257
2018-08-03T06:50:22.011Z,258
2018-08-03T06:51:22.003Z,250
2018-08-03T06:52:22.075Z,259
2018-08-03T06:53:22.067Z,297
2018-08-03T06:54:22.078Z,298
2018-08-03T06:55:22.077Z,301
2018-08-03T06:56:22.076Z,298
2018-08-03T06:57:22.006Z,303
2018-08-03T06:58:22.009Z,304
2018-08-03T06:59:22.085Z,308
2018-08-03T07:00:22.030Z,310
2018-08-03T07:01:22.080Z,347
2018-08-03T07:02:22.081Z,347
2018-08-03T07:03:22.085Z,379
2018-08-03T07:04:22.063Z,377
2018-08-03T07:05:22.085Z,389
2018-08-03T07:06:22.084Z,391
2018-08-03T07:07:22.086Z,393
2018-08-03T07:08:22.018Z,420
2018-08-03T07:09:22.088Z,438
2018-08-03T07:10:22.088Z,442
2018-08-03T07:11:22.028Z,445
2018-08-03T07:12:22.016Z,448
2018-08-03T07:13:21.954Z,451
2018-08-03T07:14:21.991Z,453
2018-08-03T07:15:22.009Z,458
2018-08-03T07:16:22.069Z,457
2018-08-03T07:17:22.085Z,497
2018-08-03T07:18:21.991Z,501
2018-08-03T07:19:22.085Z,502
2018-08-03T07:20:22.183Z,504
2018-08-03T07:21:22.032Z,512
2018-08-03T07:22:22.090Z,491
2018-08-03T07:23:22.057Z,499
2018-08-03T07:24:22.066Z,514
2018-08-03T07:25:22.069Z,525
2018-08-03T07:26:22.123Z,526
2018-08-03T07:27:22.124Z,530
2018-08-03T07:28:22.098Z,534
2018-08-03T07:29:22.127Z,548
2018-08-03T07:30:22.061Z,580
2018-08-03T07:31:22.126Z,583
2018-08-03T07:32:22.096Z,586
2018-08-03T07:33:22.032Z,590
2018-08-03T07:34:22.042Z,585
2018-08-03T07:35:22.037Z,596
2018-08-03T07:36:22.103Z,599
2018-08-03T07:37:22.105Z,601
2018-08-03T07:38:22.038Z,605
2018-08-03T07:39:22.106Z,610
2018-08-03T07:40:22.040Z,604
2018-08-03T07:41:22.041Z,615
2018-08-03T07:42:22.063Z,618
2018-08-03T07:43:22.307Z,620
2018-08-03T07:44:22.143Z,623
2018-08-03T07:45:22.134Z,627
2018-08-03T07:46:22.144Z,628
2018-08-03T07:47:22.150Z,634
2018-08-03T07:48:22.075Z,636
2018-08-03T07:49:22.139Z,638
2018-08-03T07:50:22.030Z,641
2018-08-03T07:51:22.044Z,641
2018-08-03T07:52:22.151Z,647
2018-08-03T07:53:22.119Z,647
2018-08-03T07:54:22.119Z,639
2018-08-03T07:55:22.200Z,641
2018-08-03T07:56:22.048Z,658
2018-08-03T07:57:22.115Z,659
2018-08-03T07:58:22.049Z,659
2018-08-03T07:59:22.047Z,666
2018-08-03T08:00:22.117Z,670
2018-08-03T08:01:22.086Z,671
2018-08-03T08:02:22.080Z,672
2018-08-03T08:03:22.155Z,675
2018-08-03T08:04:22.076Z,677
2018-08-03T08:05:22.100Z,677
2018-08-03T08:06:22.076Z,684
2018-08-03T08:07:22.248Z,687
2018-08-03T08:08:22.083Z,689
2018-08-03T08:09:22.082Z,690
2018-08-03T08:10:22.093Z,690
2018-08-03T08:11:22.125Z,691
2018-08-03T08:12:22.057Z,701
2018-08-03T08:13:22.137Z,704
2018-08-03T08:14:22.060Z,706
2018-08-03T08:15:22.193Z,710
2018-08-03T08:16:22.148Z,715
2018-08-03T08:17:22.130Z,520
2018-08-03T08:18:22.068Z,720
2018-08-03T08:19:22.069Z,722
2018-08-03T08:20:22.124Z,722
2018-08-03T08:21:22.128Z,726
2018-08-03T08:22:22.064Z,723
2018-08-03T08:23:22.134Z,727
2018-08-03T08:24:22.072Z,731
2018-08-03T08:25:22.066Z,734
2018-08-03T08:26:22.134Z,734
2018-08-03T08:27:22.136Z,737
2018-08-03T08:28:22.071Z,737
2018-08-03T08:29:22.136Z,740
2018-08-03T08:30:22.113Z,743
2018-08-03T08:31:22.148Z,746
2018-08-03T08:32:22.177Z,747
2018-08-03T08:33:22.168Z,749
2018-08-03T08:34:22.140Z,750
2018-08-03T08:35:22.179Z,752
2018-08-03T08:36:22.108Z,758
2018-08-03T08:37:22.105Z,762
2018-08-03T08:38:22.171Z,768
2018-08-03T08:39:22.167Z,768
2018-08-03T08:40:22.124Z,734
2018-08-03T08:41:22.173Z,764
2018-08-03T08:42:22.098Z,770
2018-08-03T08:43:22.156Z,774
2018-08-03T08:44:22.173Z,775
2018-08-03T08:45:22.147Z,775
2018-08-03T08:46:22.116Z,776
2018-08-03T08:47:22.187Z,777
2018-08-03T08:48:22.070Z,784
2018-08-03T08:49:22.147Z,784
2018-08-03T08:50:22.220Z,787
2018-08-03T08:51:22.057Z,790
2018-08-03T08:52:22.117Z,785
2018-08-03T08:53:22.177Z,789
2018-08-03T08:54:22.156Z,797
2018-08-03T08:55:22.187Z,800
2018-08-03T08:56:22.192Z,801
2018-08-03T08:57:22.124Z,799
2018-08-03T08:58:22.191Z,797
2018-08-03T08:59:22.194Z,800
2018-08-03T09:00:22.135Z,803
2018-08-03T09:01:22.122Z,806
2018-08-03T09:02:22.195Z,808
2018-08-03T09:03:22.156Z,809
2018-08-03T09:04:22.185Z,809
2018-08-03T09:05:22.193Z,814
2018-08-03T09:06:22.102Z,814
2018-08-03T09:07:22.240Z,813
2018-08-03T09:08:22.065Z,810
2018-08-03T09:09:22.088Z,809
2018-08-03T09:10:22.132Z,812
2018-08-03T09:11:22.171Z,809
2018-08-03T09:12:22.122Z,812
2018-08-03T09:13:22.172Z,815
2018-08-03T09:14:22.124Z,816
2018-08-03T09:15:22.102Z,816
2018-08-03T09:16:22.106Z,819
2018-08-03T09:17:22.174Z,821
2018-08-03T09:18:22.124Z,826
2018-08-03T09:19:22.106Z,830
2018-08-03T09:20:22.114Z,833
2018-08-03T09:21:22.131Z,834
2018-08-03T09:22:22.154Z,831
2018-08-03T09:23:22.140Z,839
2018-08-03T09:24:22.134Z,840
2018-08-03T09:25:22.077Z,843
2018-08-03T09:26:22.079Z,851
2018-08-03T09:27:22.202Z,850
2018-08-03T09:28:22.173Z,852
2018-08-03T09:29:22.086Z,856
2018-08-03T09:30:22.099Z,853
2018-08-03T09:31:22.171Z,855
2018-08-03T09:32:22.086Z,854
2018-08-03T09:33:22.116Z,852
2018-08-03T09:34:22.176Z,850
2018-08-03T09:35:22.183Z,860
2018-08-03T09:36:22.083Z,865
2018-08-03T09:37:22.119Z,868
2018-08-03T09:38:22.180Z,871
2018-08-03T09:39:22.109Z,869
2018-08-03T09:40:22.181Z,871
2018-08-03T09:41:22.188Z,871
2018-08-03T09:42:22.167Z,869
2018-08-03T09:43:22.194Z,870
2018-08-03T09:44:22.124Z,872
2018-08-03T09:45:22.260Z,874
2018-08-03T09:46:22.199Z,871
2018-08-03T09:47:22.190Z,873
2018-08-03T09:48:22.135Z,878
2018-08-03T09:49:22.194Z,881
2018-08-03T09:50:22.127Z,883
2018-08-03T09:51:22.194Z,886
2018-08-03T09:52:22.172Z,884
2018-08-03T09:53:22.197Z,888
2018-08-03T09:54:22.177Z,890
2018-08-03T09:55:22.165Z,888
2018-08-03T09:56:22.120Z,891
2018-08-03T09:57:22.159Z,893
2018-08-03T09:58:22.223Z,899
2018-08-03T09:59:22.197Z,901
2018-08-03T10:00:22.170Z,898
2018-08-03T10:01:22.108Z,899
2018-08-03T10:02:22.170Z,900
2018-08-03T10:03:22.170Z,903
2018-08-03T10:04:22.243Z,909
2018-08-03T10:05:22.238Z,909
2018-08-03T10:06:22.204Z,909
2018-08-03T10:07:22.192Z,912
2018-08-03T10:08:22.208Z,909
2018-08-03T10:09:22.208Z,915
2018-08-03T10:10:22.182Z,911
2018-08-03T10:11:22.243Z,920
2018-08-03T10:12:22.205Z,928
2018-08-03T10:13:22.181Z,934
2018-08-03T10:14:22.247Z,936
2018-08-03T10:15:22.181Z,937
2018-08-03T10:16:22.191Z,939
2018-08-03T10:17:22.231Z,933
2018-08-03T10:18:22.115Z,934
2018-08-03T10:19:22.195Z,931
2018-08-03T10:20:22.220Z,935
2018-08-03T10:21:22.291Z,936
2018-08-03T10:22:22.241Z,929
2018-08-03T10:23:22.190Z,931
2018-08-03T10:24:22.221Z,933
2018-08-03T10:25:22.151Z,930
2018-08-03T10:26:22.222Z,930
2018-08-03T10:27:22.222Z,927
2018-08-03T10:28:22.152Z,927
2018-08-03T10:29:22.157Z,925
2018-08-03T10:30:22.223Z,928
2018-08-03T10:31:22.221Z,928
2018-08-03T10:32:22.155Z,929
2018-08-03T10:33:22.154Z,926
2018-08-03T10:34:22.223Z,919
2018-08-03T10:35:22.159Z,920
2018-08-03T10:36:22.158Z,928
2018-08-03T10:37:22.226Z,931
2018-08-03T10:38:22.159Z,933
2018-08-03T10:39:22.229Z,929
2018-08-03T10:40:22.161Z,928
2018-08-03T10:41:22.184Z,927
2018-08-03T10:42:22.229Z,930
2018-08-03T10:43:22.250Z,938
2018-08-03T10:44:22.208Z,944
2018-08-03T10:45:22.194Z,950
2018-08-03T10:46:22.152Z,949
2018-08-03T10:47:22.136Z,951
2018-08-03T10:48:22.132Z,953
2018-08-03T10:49:22.173Z,954
2018-08-03T10:50:22.202Z,956
2018-08-03T10:51:22.153Z,956
2018-08-03T10:52:22.103Z,950
2018-08-03T10:53:22.194Z,953
2018-08-03T10:54:22.124Z,952
2018-08-03T10:55:22.133Z,955
2018-08-03T10:56:22.161Z,955
2018-08-03T10:57:22.220Z,957
2018-08-03T10:58:22.135Z,954
2018-08-03T10:59:22.112Z,958
2018-08-03T11:00:22.110Z,960
2018-08-03T11:01:22.248Z,955
2018-08-03T11:02:22.249Z,949
2018-08-03T11:03:22.281Z,948
2018-08-03T11:04:22.243Z,946
2018-08-03T11:05:22.251Z,946
2018-08-03T11:06:22.220Z,943
2018-08-03T11:07:22.205Z,942
2018-08-03T11:08:22.154Z,951
2018-08-03T11:09:22.227Z,951
2018-08-03T11:10:22.206Z,950
2018-08-03T11:11:22.130Z,947
2018-08-03T11:12:22.240Z,953
2018-08-03T11:13:22.178Z,952
2018-08-03T11:14:22.199Z,952
2018-08-03T11:15:22.239Z,951
2018-08-03T11:16:22.202Z,948
2018-08-03T11:17:22.126Z,945
2018-08-03T11:18:22.141Z,947
2018-08-03T11:19:22.218Z,950
2018-08-03T11:20:22.150Z,948
2018-08-03T11:21:22.160Z,947
2018-08-03T11:22:22.192Z,946
2018-08-03T11:23:22.225Z,941
2018-08-03T11:24:22.313Z,945
2018-08-03T11:25:22.199Z,947
2018-08-03T11:26:22.260Z,946
2018-08-03T11:27:22.196Z,949
2018-08-03T11:28:22.194Z,946
2018-08-03T11:29:22.198Z,945
2018-08-03T11:30:22.262Z,946
2018-08-03T11:31:22.295Z,947
2018-08-03T11:32:22.190Z,949
2018-08-03T11:33:22.171Z,951
2018-08-03T11:34:22.198Z,951
2018-08-03T11:35:22.175Z,947
2018-08-03T11:36:22.257Z,948
2018-08-03T11:37:22.262Z,949
2018-08-03T11:38:22.200Z,948
2018-08-03T11:39:22.205Z,953
2018-08-03T11:40:22.263Z,947
2018-08-03T11:41:22.274Z,945
2018-08-03T11:42:22.275Z,948
2018-08-03T11:43:22.203Z,951
2018-08-03T11:44:22.274Z,948
2018-08-03T11:45:22.209Z,946
2018-08-03T11:46:22.247Z,936
2018-08-03T11:47:22.212Z,936
2018-08-03T11:48:22.352Z,944
2018-08-03T11:49:22.282Z,944
2018-08-03T11:50:22.212Z,939
2018-08-03T11:51:22.279Z,938
2018-08-03T11:52:22.240Z,936
2018-08-03T11:53:22.245Z,939
2018-08-03T11:54:22.300Z,935
2018-08-03T11:55:22.260Z,944
2018-08-03T11:56:22.177Z,944
2018-08-03T11:57:22.283Z,937
2018-08-03T11:58:22.281Z,933
2018-08-03T11:59:22.251Z,929
2018-08-03T12:00:22.264Z,931
2018-08-03T12:01:22.263Z,937
2018-08-03T12:02:22.222Z,935
2018-08-03T12:03:22.222Z,932
2018-08-03T12:04:22.288Z,932
2018-08-03T12:05:22.222Z,928
2018-08-03T12:06:22.249Z,931
2018-08-03T12:07:22.288Z,932
2018-08-03T12:08:22.226Z,933
2018-08-03T12:09:22.292Z,929
2018-08-03T12:10:22.235Z,930
2018-08-03T12:11:22.256Z,926
2018-08-03T12:12:22.278Z,927
2018-08-03T12:13:22.299Z,937
2018-08-03T12:14:22.226Z,938
2018-08-03T12:15:22.295Z,932
2018-08-03T12:16:22.227Z,928
2018-08-03T12:17:22.298Z,927
2018-08-03T12:18:22.233Z,932
2018-08-03T12:19:22.235Z,934
2018-08-03T12:20:22.230Z,930
2018-08-03T12:21:22.231Z,928
2018-08-03T12:22:22.299Z,922
2018-08-03T12:23:22.314Z,918
2018-08-03T12:24:22.254Z,924
2018-08-03T12:25:22.168Z,927
2018-08-03T12:26:22.252Z,929
2018-08-03T12:27:22.233Z,926
2018-08-03T12:28:22.260Z,920
2018-08-03T12:29:22.231Z,910
2018-08-03T12:30:22.211Z,906
2018-08-03T12:31:22.231Z,911
2018-08-03T12:32:22.099Z,905
2018-08-03T12:33:22.194Z,905
2018-08-03T12:34:22.091Z,905
2018-08-03T12:35:22.100Z,901
2018-08-03T12:36:22.093Z,898
2018-08-03T12:37:22.283Z,895
2018-08-03T12:38:22.098Z,896
2018-08-03T12:39:22.101Z,904
2018-08-03T12:40:22.101Z,900
2018-08-03T12:41:22.290Z,903
2018-08-03T12:42:22.329Z,902
2018-08-03T12:43:22.230Z,901
2018-08-03T12:44:22.276Z,902
2018-08-03T12:45:22.293Z,902
2018-08-03T12:46:22.218Z,902
2018-08-03T12:47:22.349Z,896
2018-08-03T12:48:22.352Z,895
2018-08-03T12:49:22.273Z,900
2018-08-03T12:50:22.299Z,904
2018-08-03T12:51:22.339Z,902
2018-08-03T12:52:22.319Z,898
2018-08-03T12:53:22.220Z,890
2018-08-03T12:54:22.351Z,896
2018-08-03T12:55:22.359Z,888
2018-08-03T12:56:22.286Z,886
2018-08-03T12:57:22.281Z,883
2018-08-03T12:58:22.223Z,885
2018-08-03T12:59:22.288Z,889
2018-08-03T13:00:22.223Z,891
2018-08-03T13:01:22.324Z,885
2018-08-03T13:02:22.265Z,883
2018-08-03T13:03:22.326Z,880
2018-08-03T13:04:22.346Z,878
2018-08-03T13:05:22.329Z,881
2018-08-03T13:06:22.265Z,880
2018-08-03T13:07:22.399Z,877
2018-08-03T13:08:22.477Z,879
2018-08-03T13:09:22.331Z,875
2018-08-03T13:10:22.266Z,876
2018-08-03T13:11:22.230Z,877
2018-08-03T13:12:22.335Z,879
2018-08-03T13:13:22.447Z,878
2018-08-03T13:14:22.315Z,874
2018-08-03T13:15:22.316Z,868
2018-08-03T13:16:22.373Z,867
2018-08-03T13:17:22.298Z,872
2018-08-03T13:18:22.312Z,871
2018-08-03T13:19:22.306Z,868
2018-08-03T13:20:22.374Z,860
2018-08-03T13:21:22.328Z,859
2018-08-03T13:22:22.328Z,859
2018-08-03T13:23:22.318Z,857
2018-08-03T13:24:22.317Z,848
2018-08-03T13:25:22.327Z,845
2018-08-03T13:26:22.210Z,848
2018-08-03T13:27:22.254Z,846
2018-08-03T13:28:22.321Z,843
2018-08-03T13:29:22.335Z,831
2018-08-03T13:30:22.309Z,831
2018-08-03T13:31:22.343Z,839
2018-08-03T13:32:22.313Z,837
2018-08-03T13:33:22.384Z,837
2018-08-03T13:34:22.350Z,835
2018-08-03T13:35:22.383Z,828
2018-08-03T13:36:22.407Z,830
2018-08-03T13:37:22.353Z,828
2018-08-03T13:38:22.320Z,830
2018-08-03T13:39:22.426Z,824
2018-08-03T13:40:22.315Z,822
2018-08-03T13:41:22.295Z,816
2018-08-03T13:42:22.363Z,814
2018-08-03T13:43:22.358Z,818
2018-08-03T13:44:22.288Z,819
2018-08-03T13:45:22.354Z,820
2018-08-03T13:46:22.371Z,820
2018-08-03T13:47:22.327Z,820
2018-08-03T13:48:22.290Z,816
2018-08-03T13:49:22.359Z,816
2018-08-03T13:50:22.426Z,818
2018-08-03T13:51:22.395Z,815
2018-08-03T13:52:22.262Z,812
2018-08-03T13:53:22.390Z,809
2018-08-03T13:54:22.386Z,805
2018-08-03T13:55:22.320Z,803
2018-08-03T13:56:22.395Z,802
2018-08-03T13:57:22.337Z,802
2018-08-03T13:58:22.341Z,798
2018-08-03T13:59:22.327Z,796
2018-08-03T14:00:22.338Z,791
2018-08-03T14:01:22.332Z,791
2018-08-03T14:02:22.321Z,791
2018-08-03T14:03:22.268Z,788
2018-08-03T14:04:22.371Z,784
2018-08-03T14:05:22.391Z,779
2018-08-03T14:06:22.354Z,778
2018-08-03T14:07:22.414Z,773
2018-08-03T14:08:22.330Z,774